Time;durP1;ratioP1;P1;durP2;ratioP2;P2;SDS_P1;SDS_P2;PMS_P1;PMS_P2;Temp;Humidity;BMP_temperature;BMP_pressure;BME280_temperature;BME280_humidity;BME280_pressure;Samples;Min_cycle;Max_cycle;Signal;HPM_P1;HPM_P2
2022/01/24 00:02:22;;;;;;;;;33.60;30.00;;;;;4.54;38.95;100481.69;6190438;28;98391;-71
2022/01/24 00:05:25;;;;;;;;;37.00;32.00;;;;;4.49;39.46;100477.78;6188776;28;97480;-71
2022/01/24 00:08:31;;;;;;;;;34.40;30.40;;;;;4.39;39.29;100476.94;6186790;28;97622;-71
2022/01/24 00:11:42;;;;;;;;;38.40;32.40;;;;;4.34;39.74;100488.91;6166124;28;96883;-71
2022/01/24 00:14:59;;;;;;;;;37.20;30.60;;;;;4.14;39.71;100457.88;6165593;28;97050;-71
2022/01/24 00:18:08;;;;;;;;;33.80;31.40;;;;;4.20;39.67;100480.50;6164045;28;96659;-70
2022/01/24 00:27:54;;;;;;;;;37.60;32.00;;;;;4.00;39.54;100468.13;6206057;28;96490;-74
2022/01/24 00:30:57;;;;;;;;;35.00;32.00;;;;;4.08;39.76;100473.59;6185622;28;97527;-70
2022/01/24 00:34:01;;;;;;;;;38.00;33.00;;;;;3.98;39.71;100478.09;6184109;28;97462;-71
2022/01/24 00:37:05;;;;;;;;;39.00;32.00;;;;;3.86;39.82;100472.06;6188815;28;97859;-71
2022/01/24 00:40:11;;;;;;;;;39.50;32.00;;;;;3.58;39.87;100441.72;6186785;28;98103;-72
2022/01/24 00:43:24;;;;;;;;;40.80;32.00;;;;;3.71;40.26;100468.13;6171433;28;97285;-71
2022/01/24 00:46:34;;;;;;;;;35.60;32.00;;;;;3.63;39.97;100465.31;6165335;28;96468;-71
2022/01/24 00:49:51;;;;;;;;;36.00;30.00;;;;;3.54;40.35;100463.47;6179895;28;97129;-72
2022/01/24 00:56:19;;;;;;;;;34.20;31.80;;;;;3.28;40.70;100457.81;6163557;28;96737;-71
2022/01/24 00:59:23;;;;;;;;;36.00;32.00;;;;;3.24;40.76;100470.56;6162087;28;97820;-71
2022/01/24 01:02:26;;;;;;;;;34.20;30.00;;;;;3.20;41.07;100466.50;6162350;28;98309;-71
2022/01/24 01:05:44;;;;;;;;;35.00;31.00;;;;;3.15;41.38;100467.88;6177881;28;98441;-71
2022/01/24 01:18:51;;;;;;;;;40.00;32.60;;;;;2.76;41.87;100466.88;6167325;28;97205;-71
2022/01/24 01:21:55;;;;;;;;;35.60;31.00;;;;;2.70;41.89;100470.06;6164446;28;96378;-71
2022/01/24 01:24:59;;;;;;;;;34.40;32.00;;;;;2.61;42.08;100461.91;6166780;28;97778;-71
2022/01/24 01:28:04;;;;;;;;;36.80;32.00;;;;;2.52;41.85;100467.19;6169582;28;96702;-70
2022/01/24 01:31:13;;;;;;;;;37.00;31.50;;;;;2.44;42.15;100469.69;6175904;28;96927;-71
2022/01/24 01:34:36;;;;;;;;;44.40;33.00;;;;;2.39;42.20;100461.25;6165957;28;96525;-71
2022/01/24 01:38:04;;;;;;;;;36.75;32.00;;;;;2.34;42.53;100468.78;6169581;28;96505;-70
2022/01/24 01:54:50;;;;;;;;;38.50;32.00;;;;;1.92;42.95;100465.25;6169173;28;97540;-71
2022/01/24 01:57:53;;;;;;;;;38.25;32.50;;;;;1.72;43.08;100462.44;6182116;28;97511;-70
2022/01/24 02:01:01;;;;;;;;;38.80;33.00;;;;;1.83;43.27;100471.34;6177871;28;96887;-70
2022/01/24 02:04:05;;;;;;;;;41.25;33.00;;;;;1.74;43.19;100479.09;6179214;28;98531;-71
2022/01/24 02:07:11;;;;;;;;;44.50;33.00;;;;;1.70;43.23;100476.84;6186507;28;96345;-72
2022/01/24 02:10:15;;;;;;;;;40.60;33.00;;;;;1.62;43.37;100474.78;6184938;28;98990;-68
2022/01/24 02:13:21;;;;;;;;;37.20;32.00;;;;;1.57;43.99;100481.44;6189581;28;96959;-70
2022/01/24 02:16:36;;;;;;;;;37.00;30.00;;;;;1.55;43.85;100481.59;6184483;28;97732;-70
2022/01/24 02:19:53;;;;;;;;;35.33;31.00;;;;;1.58;44.19;100476.03;6179566;28;97537;-70
2022/01/24 02:23:20;;;;;;;;;36.20;32.20;;;;;1.56;44.31;100482.44;6178230;28;96599;-71
2022/01/24 02:26:23;;;;;;;;;36.00;32.75;;;;;1.56;44.26;100466.50;6190479;28;96516;-72
2022/01/24 02:29:43;;;;;;;;;39.00;33.00;;;;;1.49;44.38;100475.94;6170480;28;98177;-71
2022/01/24 02:32:46;;;;;;;;;35.00;29.00;;;;;1.46;44.49;100473.53;6168527;28;97183;-72
2022/01/24 02:35:49;;;;;;;;;39.40;32.80;;;;;1.42;44.27;100474.75;6162912;28;96672;-71
2022/01/24 02:39:06;;;;;;;;;40.25;34.00;;;;;1.39;44.31;100478.50;6177878;28;96768;-72
2022/01/24 02:48:51;;;;;;;;;40.25;32.50;;;;;1.27;44.16;100488.28;6182565;28;97820;-71
2022/01/24 02:52:03;;;;;;;;;41.00;33.00;;;;;1.18;44.43;100490.84;6169136;28;97285;-71
2022/01/24 02:55:08;;;;;;;;;39.50;33.00;;;;;1.15;44.99;100486.63;6170054;28;96854;-71
2022/01/24 02:58:11;;;;;;;;;39.00;33.00;;;;;1.15;44.42;100499.06;6189985;28;97035;-70
2022/01/24 03:01:14;;;;;;;;;38.20;33.20;;;;;1.09;44.61;100502.19;6188629;28;96619;-71
2022/01/24 03:04:18;;;;;;;;;41.25;33.00;;;;;1.01;44.24;100491.34;6177710;28;96857;-70
2022/01/24 03:07:21;;;;;;;;;40.00;33.00;;;;;0.94;44.32;100490.97;6185415;28;97828;-71
2022/01/24 03:10:28;;;;;;;;;38.00;33.00;;;;;0.90;43.91;100504.63;6180635;28;96588;-72
2022/01/24 03:13:33;;;;;;;;;41.00;33.00;;;;;0.90;44.00;100497.50;6174170;28;97614;-71
2022/01/24 03:16:37;;;;;;;;;40.60;33.00;;;;;0.91;44.32;100495.69;6184901;28;96949;-71
2022/01/24 03:19:40;;;;;;;;;39.00;33.00;;;;;0.92;45.17;100497.41;6185060;28;96671;-70
2022/01/24 03:22:43;;;;;;;;;41.40;34.00;;;;;0.93;44.25;100502.56;6186648;28;98106;-72
2022/01/24 03:25:48;;;;;;;;;33.75;30.00;;;;;0.84;44.21;100511.25;6173329;28;97588;-72
2022/01/24 03:28:57;;;;;;;;;35.50;30.75;;;;;0.68;43.99;100508.97;6162799;28;96491;-71
2022/01/24 03:32:00;;;;;;;;;40.40;33.00;;;;;0.60;44.57;100499.91;6163489;28;96984;-71
2022/01/24 03:35:07;;;;;;;;;43.80;34.00;;;;;0.58;44.62;100510.66;6164617;28;96959;-71
2022/01/24 03:38:12;;;;;;;;;42.75;35.00;;;;;0.58;44.76;100510.66;6162195;28;96547;-71
2022/01/24 03:41:17;;;;;;;;;42.40;35.00;;;;;0.50;44.87;100488.31;6164900;28;98382;-71
2022/01/24 03:44:23;;;;;;;;;46.60;37.20;;;;;0.68;44.82;100502.81;6172079;28;98305;-70
2022/01/24 03:47:43;;;;;;;;;45.00;36.00;;;;;0.77;44.44;100510.91;6179129;28;97487;-71
2022/01/24 03:50:46;;;;;;;;;43.50;35.00;;;;;0.77;44.03;100518.88;6163622;28;98494;-70
2022/01/24 03:53:50;;;;;;;;;45.00;35.00;;;;;0.77;44.13;100523.34;6172609;28;97484;-72
2022/01/24 03:56:55;;;;;;;;;45.00;36.40;;;;;0.72;44.60;100528.16;6169899;28;98726;-71
2022/01/24 03:59:58;;;;;;;;;44.00;35.80;;;;;0.66;44.77;100528.63;6166683;28;97496;-71
2022/01/24 04:03:02;;;;;;;;;44.20;35.00;;;;;0.55;44.52;100529.44;6186253;28;97165;-71
2022/01/24 04:06:06;;;;;;;;;43.50;35.00;;;;;0.45;44.30;100536.41;6189812;28;96703;-70
2022/01/24 04:09:10;;;;;;;;;42.00;35.00;;;;;0.39;44.33;100535.06;6171789;28;96598;-71
2022/01/24 04:12:15;;;;;;;;;43.75;34.50;;;;;0.37;43.90;100544.13;6206098;28;96641;-70
2022/01/24 04:15:44;;;;;;;;;39.00;33.40;;;;;0.33;43.93;100535.56;6190925;28;97497;-70
2022/01/24 04:18:53;;;;;;;;;41.40;35.00;;;;;0.32;43.84;100538.31;6189041;28;99114;-71
2022/01/24 04:21:56;;;;;;;;;45.60;35.60;;;;;0.22;44.02;100532.88;6188227;28;98911;-71
2022/01/24 04:25:02;;;;;;;;;45.00;35.00;;;;;0.27;44.05;100543.13;6163599;28;96534;-71
2022/01/24 04:28:07;;;;;;;;;43.60;35.00;;;;;0.25;44.12;100548.53;6171663;28;98363;-71
2022/01/24 04:31:10;;;;;;;;;40.50;35.00;;;;;0.20;44.20;100550.69;6153153;28;98171;-70
2022/01/24 04:34:13;;;;;;;;;40.00;34.00;;;;;0.13;44.14;100549.47;6167538;28;97415;-71
2022/01/24 04:37:17;;;;;;;;;46.80;36.00;;;;;0.04;44.54;100552.81;6184014;28;99562;-70
2022/01/24 04:40:21;;;;;;;;;45.00;35.00;;;;;-0.02;44.60;100554.13;6172733;28;97288;-71
2022/01/24 04:43:34;;;;;;;;;45.20;35.80;;;;;-0.07;44.69;100552.78;6182102;28;97513;-71
2022/01/24 04:50:38;;;;;;;;;40.60;34.00;;;;;-0.22;44.58;100552.09;6178216;28;96672;-72
2022/01/24 04:54:15;;;;;;;;;40.80;32.00;;;;;-0.29;44.84;100560.63;6165019;28;96420;-72
2022/01/24 04:57:19;;;;;;;;;41.00;33.00;;;;;-0.40;44.52;100573.78;6164556;28;97201;-71
2022/01/24 05:00:24;;;;;;;;;42.00;34.60;;;;;-0.41;44.55;100564.16;6173331;28;98142;-71
2022/01/24 05:03:27;;;;;;;;;51.00;39.00;;;;;-0.41;44.68;100565.00;6165505;28;99310;-72
2022/01/24 05:06:30;;;;;;;;;49.00;40.00;;;;;-0.39;44.62;100572.84;6183846;28;98558;-71
2022/01/24 05:09:39;;;;;;;;;52.40;41.60;;;;;-0.40;44.61;100563.19;6187318;28;97052;-70
2022/01/24 05:26:09;;;;;;;;;49.00;39.60;;;;;-0.50;45.70;100560.38;6179290;28;97563;-71
2022/01/24 05:29:12;;;;;;;;;45.00;36.00;;;;;-0.49;45.40;100556.78;6184826;28;97587;-70
2022/01/24 05:32:17;;;;;;;;;45.00;35.60;;;;;-0.53;45.00;100558.78;6189735;28;96609;-70
2022/01/24 05:35:20;;;;;;;;;44.60;35.00;;;;;-0.85;45.19;100501.13;6175049;28;98386;-71
2022/01/24 05:38:23;;;;;;;;;45.60;36.00;;;;;-0.49;45.24;100567.38;6163481;28;97517;-70
2022/01/24 05:41:26;;;;;;;;;47.80;37.40;;;;;-0.47;44.85;100563.63;6165563;28;98134;-71
2022/01/24 05:44:30;;;;;;;;;49.00;38.00;;;;;-0.44;45.01;100568.69;6180372;28;97072;-69
2022/01/24 05:47:35;;;;;;;;;45.80;36.00;;;;;-0.48;44.63;100574.34;6180689;28;96680;-68
2022/01/24 05:50:38;;;;;;;;;43.00;34.40;;;;;-0.70;44.19;100545.06;6165311;28;97325;-70
2022/01/24 05:53:41;;;;;;;;;46.80;36.60;;;;;-0.51;43.93;100587.81;6176070;28;96962;-69
2022/01/24 05:56:45;;;;;;;;;47.75;38.00;;;;;-0.53;44.21;100584.41;6183244;28;97843;-69
2022/01/24 05:59:48;;;;;;;;;49.00;39.40;;;;;-0.52;43.94;100592.25;6186298;28;97184;-71
2022/01/24 06:02:52;;;;;;;;;43.67;35.33;;;;;-0.54;44.02;100593.34;6179628;28;97074;-69
2022/01/24 06:05:56;;;;;;;;;47.60;38.00;;;;;-0.52;43.73;100594.91;6180564;28;96787;-70
2022/01/24 06:08:59;;;;;;;;;41.60;35.40;;;;;-0.58;44.03;100592.69;6184294;28;97140;-68
2022/01/24 06:12:02;;;;;;;;;45.00;36.00;;;;;-0.59;43.38;100590.16;6183209;28;96768;-70
2022/01/24 06:15:07;;;;;;;;;47.00;36.40;;;;;-0.63;43.80;100601.91;6165773;28;96569;-64
2022/01/24 06:18:12;;;;;;;;;45.00;36.00;;;;;-0.61;44.70;100600.00;6185087;28;98565;-68
2022/01/24 06:21:18;;;;;;;;;46.50;38.00;;;;;-0.61;44.06;100605.31;6186392;28;99566;-67
2022/01/24 06:24:21;;;;;;;;;49.00;39.00;;;;;-0.64;43.56;100610.84;6181493;28;96905;-69
2022/01/24 06:27:45;;;;;;;;;49.20;38.80;;;;;-0.63;43.57;100613.34;6185480;28;96753;-70
2022/01/24 06:30:48;;;;;;;;;48.40;38.40;;;;;-0.61;43.62;100616.75;6201691;28;97089;-66
2022/01/24 06:33:53;;;;;;;;;47.00;36.75;;;;;-0.54;43.91;100615.34;6177533;28;97410;-67
2022/01/24 06:36:56;;;;;;;;;47.00;38.20;;;;;-0.43;44.18;100622.53;6182756;28;97582;-66
2022/01/24 06:39:59;;;;;;;;;45.00;37.80;;;;;-0.29;44.28;100617.09;6165848;28;98467;-69
2022/01/24 06:43:02;;;;;;;;;49.00;38.00;;;;;0.18;44.01;100621.59;6183978;28;96969;-65
2022/01/24 06:46:06;;;;;;;;;49.00;39.00;;;;;1.02;41.64;100628.50;6187019;28;96628;-66
2022/01/24 06:49:10;;;;;;;;;47.00;39.40;;;;;1.53;40.84;100629.72;6191840;28;97972;-66
2022/01/24 06:52:15;;;;;;;;;50.40;41.00;;;;;1.51;41.14;100625.50;6183663;28;97714;-68
2022/01/24 06:55:18;;;;;;;;;49.00;39.80;;;;;1.38;41.51;100632.72;6186606;28;97166;-69
2022/01/24 06:58:22;;;;;;;;;53.80;41.80;;;;;1.52;41.50;100636.00;6184295;28;97506;-67
2022/01/24 07:01:25;;;;;;;;;53.00;41.00;;;;;2.51;40.75;100646.53;6183889;28;98205;-70
2022/01/24 07:04:30;;;;;;;;;53.60;42.00;;;;;3.52;38.26;100623.59;6181313;28;99861;-68
2022/01/24 07:07:34;;;;;;;;;52.40;41.40;;;;;3.78;37.28;100618.63;6184273;28;97200;-67
2022/01/24 07:10:37;;;;;;;;;52.60;41.40;;;;;4.59;35.99;100628.19;6165735;28;98478;-68
2022/01/24 07:13:40;;;;;;;;;50.00;39.50;;;;;5.35;35.09;100637.03;6185054;28;97536;-64
2022/01/24 07:17:06;;;;;;;;;54.00;41.00;;;;;5.82;34.15;100622.59;6185267;28;96583;-65
2022/01/24 07:20:11;;;;;;;;;55.60;42.20;;;;;6.59;32.55;100632.00;6185220;28;97778;-65
2022/01/24 07:23:17;;;;;;;;;53.20;41.80;;;;;7.49;31.42;100637.00;6184418;28;97440;-70
2022/01/24 07:26:20;;;;;;;;;51.80;41.00;;;;;8.41;30.17;100623.59;6184916;28;99561;-70
2022/01/24 07:29:24;;;;;;;;;54.80;42.80;;;;;9.61;28.54;100629.09;6185436;28;97037;-68
2022/01/24 07:32:27;;;;;;;;;54.00;43.00;;;;;10.65;27.40;100624.22;6164147;28;97826;-70
2022/01/24 07:35:32;;;;;;;;;55.00;41.40;;;;;11.52;26.01;100625.41;6186289;28;96896;-68
2022/01/24 07:38:35;;;;;;;;;48.60;40.00;;;;;12.47;25.00;100618.97;6184503;28;97161;-69
2022/01/24 07:41:43;;;;;;;;;54.00;42.50;;;;;13.24;23.92;100631.81;6175431;28;97567;-67
2022/01/24 07:44:51;;;;;;;;;52.40;42.00;;;;;13.88;23.25;100632.41;6167060;28;98016;-70
2022/01/24 07:47:54;;;;;;;;;46.60;39.00;;;;;14.58;22.31;100628.53;6162885;28;97195;-69
2022/01/24 07:50:59;;;;;;;;;49.00;39.00;;;;;15.35;21.71;100634.22;6179554;28;97001;-71
2022/01/24 07:54:03;;;;;;;;;48.80;39.00;;;;;15.98;20.94;100626.38;6184049;28;98163;-68
2022/01/24 07:57:06;;;;;;;;;47.00;37.00;;;;;16.47;20.75;100623.03;6188981;28;97521;-66
2022/01/24 08:00:12;;;;;;;;;48.60;38.80;;;;;16.93;20.37;100630.09;6179836;28;96653;-66
2022/01/24 08:03:15;;;;;;;;;47.00;38.00;;;;;17.29;19.84;100613.88;6187993;28;96660;-67
2022/01/24 08:06:20;;;;;;;;;47.00;37.60;;;;;17.81;19.31;100626.19;6190932;28;96971;-67
2022/01/24 08:09:24;;;;;;;;;46.75;36.00;;;;;18.12;18.91;100622.47;6201846;28;97500;-73
2022/01/24 08:12:27;;;;;;;;;49.25;40.00;;;;;18.46;18.61;100621.81;6191096;28;97589;-70
2022/01/24 08:15:30;;;;;;;;;47.20;39.00;;;;;18.77;18.05;100620.75;6187983;28;96997;-70
2022/01/24 08:18:33;;;;;;;;;51.00;39.00;;;;;19.17;17.76;100622.84;6176717;28;98378;-71
2022/01/24 08:21:38;;;;;;;;;50.60;40.00;;;;;19.39;17.71;100621.22;6187992;28;99664;-71
2022/01/24 08:24:41;;;;;;;;;50.20;41.80;;;;;19.53;17.01;100622.69;6185815;28;98543;-72
2022/01/24 08:27:47;;;;;;;;;49.40;39.60;;;;;19.49;16.88;100626.97;6171959;28;97563;-73
2022/01/24 08:30:52;;;;;;;;;52.00;42.00;;;;;19.51;16.56;100624.81;6165517;28;97802;-67
2022/01/24 08:33:55;;;;;;;;;55.33;43.33;;;;;19.61;16.60;100637.91;6180358;28;97479;-70
2022/01/24 08:37:00;;;;;;;;;51.75;40.75;;;;;19.27;16.60;100628.56;6188803;28;97451;-69
2022/01/24 08:40:05;;;;;;;;;54.00;44.00;;;;;19.25;17.25;100633.47;6190941;28;97038;-66
2022/01/24 08:43:22;;;;;;;;;53.00;43.00;;;;;19.38;16.53;100635.97;6184327;28;98902;-65
2022/01/24 08:46:25;;;;;;;;;55.20;44.40;;;;;19.82;16.64;100642.78;6187928;28;97006;-69
2022/01/24 08:49:29;;;;;;;;;54.80;44.00;;;;;20.15;16.09;100639.38;6186582;28;97708;-69
2022/01/24 08:52:33;;;;;;;;;57.00;44.50;;;;;20.47;15.99;100643.38;6175318;28;96575;-70
2022/01/24 08:55:48;;;;;;;;;57.00;44.00;;;;;20.90;15.96;100642.81;6163888;28;97480;-68
2022/01/24 08:58:51;;;;;;;;;55.50;43.00;;;;;21.29;15.48;100646.53;6164533;28;96752;-71
2022/01/24 09:01:55;;;;;;;;;49.00;41.00;;;;;21.69;15.93;100651.84;6171727;28;97410;-67
2022/01/24 09:05:05;;;;;;;;;55.00;41.75;;;;;21.98;15.01;100652.56;6188550;28;97409;-67
2022/01/24 09:08:10;;;;;;;;;49.60;39.00;;;;;22.10;14.65;100655.16;6188990;28;96858;-71
2022/01/24 09:11:13;;;;;;;;;51.60;41.00;;;;;22.36;14.90;100648.91;6186958;28;97599;-71
2022/01/24 09:14:17;;;;;;;;;52.75;42.00;;;;;22.56;14.87;100653.81;6184762;28;97377;-69
2022/01/24 09:17:20;;;;;;;;;48.40;40.00;;;;;22.72;14.67;100645.53;6179359;28;97920;-67
2022/01/24 09:20:24;;;;;;;;;50.75;40.00;;;;;22.96;14.82;100651.53;6163658;28;96590;-67
2022/01/24 09:23:29;;;;;;;;;49.00;40.00;;;;;22.97;14.23;100650.44;6164595;28;97988;-65
2022/01/24 09:26:32;;;;;;;;;46.75;38.00;;;;;23.23;14.27;100644.09;6165718;28;97617;-69
2022/01/24 09:29:35;;;;;;;;;49.00;39.40;;;;;23.28;14.40;100640.53;6175648;28;97053;-69
2022/01/24 09:32:39;;;;;;;;;39.60;34.60;;;;;22.95;13.93;100633.38;6177995;28;98256;-71
2022/01/24 09:35:43;;;;;;;;;45.00;37.40;;;;;22.60;14.03;100630.22;6195845;28;96703;-71
2022/01/24 09:38:50;;;;;;;;;43.20;35.00;;;;;22.74;14.08;100634.25;6174322;28;97353;-66
2022/01/24 09:41:54;;;;;;;;;43.00;35.60;;;;;22.65;14.10;100636.63;6178397;28;97499;-67
2022/01/24 09:45:09;;;;;;;;;45.00;37.40;;;;;22.85;14.28;100641.53;6191185;28;97682;-70
2022/01/24 09:48:13;;;;;;;;;43.50;36.25;;;;;22.94;13.91;100642.72;6183952;28;97535;-66
2022/01/24 09:51:17;;;;;;;;;44.60;35.00;;;;;22.96;14.29;100643.28;6167222;28;99515;-67
2022/01/24 09:54:22;;;;;;;;;44.00;36.00;;;;;22.50;14.04;100643.84;6180217;28;96668;-67
2022/01/24 09:57:25;;;;;;;;;47.00;37.00;;;;;22.29;14.44;100635.38;6166851;28;98448;-65
2022/01/24 10:00:29;;;;;;;;;42.50;35.00;;;;;22.55;14.31;100633.75;6185054;28;96978;-68
2022/01/24 10:03:32;;;;;;;;;44.00;37.75;;;;;22.65;14.15;100620.13;6184316;28;96722;-70
2022/01/24 10:07:01;;;;;;;;;48.33;39.00;;;;;22.86;13.97;100626.69;6169198;28;97432;-73
2022/01/24 10:10:06;;;;;;;;;45.20;37.00;;;;;22.83;14.03;100625.28;6163982;28;96859;-70
2022/01/24 10:16:45;;;;;;;;;47.00;37.40;;;;;21.97;14.93;100620.69;6194392;28;96788;-68
2022/01/24 10:19:48;;;;;;;;;49.00;40.00;;;;;21.83;14.58;100616.59;6184339;28;97517;-70
2022/01/24 10:23:08;;;;;;;;;52.00;41.00;;;;;21.71;14.77;100613.13;6177994;28;97344;-67
2022/01/24 10:26:12;;;;;;;;;52.00;41.60;;;;;21.98;14.80;100608.63;6167866;28;99593;-71
2022/01/24 10:29:16;;;;;;;;;52.00;42.00;;;;;21.46;14.57;100602.59;6169040;28;97976;-70
2022/01/24 10:32:39;;;;;;;;;50.60;40.00;;;;;20.92;14.97;100602.25;6179191;28;99552;-72
2022/01/24 10:35:45;;;;;;;;;47.00;38.00;;;;;20.77;15.36;100595.69;6161267;28;98000;-69
2022/01/24 10:38:55;;;;;;;;;38.60;33.00;;;;;20.98;15.44;100586.72;6162872;28;97043;-70
2022/01/24 10:45:46;;;;;;;;;44.60;36.00;;;;;20.95;15.42;100584.50;6164267;28;97731;-71
2022/01/24 10:49:00;;;;;;;;;46.40;38.40;;;;;21.02;15.26;100585.97;6184844;28;97388;-69
2022/01/24 10:52:09;;;;;;;;;45.00;38.00;;;;;20.82;15.26;100579.34;6184526;28;98101;-69
2022/01/24 10:55:16;;;;;;;;;49.00;39.60;;;;;21.01;15.81;100586.25;6184646;28;97487;-69
2022/01/24 10:58:20;;;;;;;;;47.75;38.50;;;;;20.93;15.20;100578.41;6185193;28;97478;-68
2022/01/24 11:01:27;;;;;;;;;43.50;35.00;;;;;19.94;15.23;100580.59;6166566;28;97694;-67
2022/01/24 11:04:33;;;;;;;;;43.80;35.80;;;;;20.07;15.67;100563.09;6181173;28;96640;-69
2022/01/24 11:07:48;;;;;;;;;45.00;37.00;;;;;20.54;15.60;100566.50;6186797;28;97455;-71
2022/01/24 11:10:52;;;;;;;;;47.40;39.00;;;;;20.89;15.85;100550.66;6189731;28;96465;-71
2022/01/24 11:14:01;;;;;;;;;47.60;39.40;;;;;21.18;15.29;100551.44;6191004;28;97106;-71
2022/01/24 11:17:07;;;;;;;;;44.80;35.80;;;;;21.34;15.02;100550.59;6191227;28;97155;-72
2022/01/24 11:20:15;;;;;;;;;41.50;34.50;;;;;21.31;15.20;100540.09;6191241;28;96449;-72
2022/01/24 11:23:21;;;;;;;;;28.60;27.00;;;;;21.35;14.07;100543.19;6189603;28;96986;-70
2022/01/24 11:26:24;;;;;;;;;30.00;26.00;;;;;21.10;14.30;100532.63;6191365;28;98084;-71
2022/01/24 11:29:29;;;;;;;;;32.00;28.00;;;;;20.54;15.14;100525.38;6206505;28;96648;-73
2022/01/24 11:32:38;;;;;;;;;30.60;27.60;;;;;20.77;14.83;100528.81;6172863;28;98162;-72
2022/01/24 11:35:45;;;;;;;;;34.00;30.00;;;;;20.65;14.35;100521.75;6188659;28;97538;-70
2022/01/24 11:38:58;;;;;;;;;32.00;30.00;;;;;20.55;14.72;100522.41;6192031;28;97556;-72
2022/01/24 11:42:02;;;;;;;;;36.20;30.00;;;;;20.60;15.14;100517.00;6189693;28;97678;-70
2022/01/24 11:45:13;;;;;;;;;36.00;31.00;;;;;20.73;14.52;100524.06;6190656;28;96555;-72
2022/01/24 11:48:19;;;;;;;;;36.40;32.00;;;;;20.75;14.87;100524.66;6191061;28;96942;-66
2022/01/24 11:51:32;;;;;;;;;38.00;32.00;;;;;20.55;14.93;100514.19;6176826;28;97570;-67
2022/01/24 11:54:45;;;;;;;;;30.60;28.40;;;;;20.65;15.09;100522.59;6187130;28;96726;-70
2022/01/24 11:57:50;;;;;;;;;37.00;32.00;;;;;20.55;15.07;100511.44;6185607;28;97807;-72
2022/01/24 12:00:57;;;;;;;;;37.60;32.00;;;;;20.40;15.00;100499.38;6202944;28;97968;-70
2022/01/24 12:04:01;;;;;;;;;33.25;31.25;;;;;20.17;14.99;100508.53;6184595;28;97168;-73
2022/01/24 12:07:18;;;;;;;;;39.40;32.60;;;;;20.32;15.07;100511.59;6183700;28;97881;-67
2022/01/24 12:10:45;;;;;;;;;39.75;33.00;;;;;20.21;14.95;100507.78;6185761;28;97027;-70
2022/01/24 12:13:51;;;;;;;;;33.00;31.00;;;;;19.76;14.84;100506.88;6188020;28;97085;-67
2022/01/24 12:16:57;;;;;;;;;40.00;35.00;;;;;19.58;15.68;100504.31;6187710;28;96564;-70
2022/01/24 12:20:00;;;;;;;;;38.00;33.00;;;;;19.11;16.02;100503.53;6185866;28;97465;-70
2022/01/24 12:23:38;;;;;;;;;43.75;35.00;;;;;18.92;16.66;100503.63;6184072;28;97054;-69
2022/01/24 12:27:05;;;;;;;;;51.20;42.00;;;;;19.00;17.02;100506.03;6185299;28;97794;-67
2022/01/24 12:30:10;;;;;;;;;55.00;43.00;;;;;18.94;17.50;100509.69;6185489;28;97124;-72
2022/01/24 12:33:29;;;;;;;;;52.00;42.40;;;;;18.83;17.40;100505.03;6185614;28;96621;-71
2022/01/24 12:37:05;;;;;;;;;55.00;44.00;;;;;18.89;17.37;100506.84;6184152;28;97589;-72
2022/01/24 12:40:11;;;;;;;;;55.00;44.00;;;;;18.38;17.35;100491.03;6181603;28;97513;-70
2022/01/24 12:43:28;;;;;;;;;55.00;44.00;;;;;17.88;18.01;100508.78;6171111;28;97341;-70
2022/01/24 12:46:32;;;;;;;;;53.00;42.00;;;;;17.31;18.13;100514.44;6184255;28;97445;-72
2022/01/24 12:49:38;;;;;;;;;53.00;43.00;;;;;16.86;19.14;100518.44;6168861;28;98163;-69
2022/01/24 12:52:41;;;;;;;;;57.00;44.00;;;;;16.67;19.40;100519.44;6184830;28;97221;-67
2022/01/24 12:55:45;;;;;;;;;55.60;42.60;;;;;16.60;19.50;100526.84;6184471;28;97578;-72
2022/01/24 12:58:50;;;;;;;;;53.00;42.50;;;;;16.54;19.70;100523.09;6180933;28;97173;-70
2022/01/24 13:01:56;;;;;;;;;52.00;43.00;;;;;16.28;19.87;100515.94;6165704;28;98027;-69
2022/01/24 13:05:04;;;;;;;;;53.20;43.00;;;;;16.22;19.47;100516.81;6185282;28;97363;-70
2022/01/24 13:08:08;;;;;;;;;52.20;41.00;;;;;15.95;19.88;100512.56;6191639;28;96617;-69
2022/01/24 13:11:11;;;;;;;;;52.25;41.00;;;;;15.63;20.40;100513.56;6205178;28;97520;-69
2022/01/24 13:14:21;;;;;;;;;52.80;41.60;;;;;15.39;20.16;100513.19;6187113;28;97176;-69
2022/01/24 13:24:07;;;;;;;;;49.40;39.00;;;;;14.49;20.85;100503.06;6181200;28;97186;-69
2022/01/24 13:27:10;;;;;;;;;48.00;38.40;;;;;14.20;21.42;100497.97;6166682;28;98604;-69
2022/01/24 13:30:16;;;;;;;;;51.80;41.60;;;;;13.58;21.61;100501.75;6185761;28;96694;-68
2022/01/24 13:33:24;;;;;;;;;52.00;41.40;;;;;12.82;22.49;100505.41;6183827;28;96967;-73
2022/01/24 13:36:29;;;;;;;;;48.40;39.00;;;;;12.55;23.14;100497.09;6163758;28;97150;-68
2022/01/24 13:39:32;;;;;;;;;50.50;40.00;;;;;12.58;23.35;100504.81;6184324;28;96583;-72
2022/01/24 13:42:35;;;;;;;;;53.00;41.00;;;;;12.29;23.48;100498.72;6215392;22;97240;-70
2022/01/24 13:45:40;;;;;;;;;49.00;39.80;;;;;12.35;23.40;100495.25;6186529;28;97482;-70
2022/01/24 13:48:46;;;;;;;;;51.60;40.80;;;;;12.06;23.43;100483.53;6201299;28;96766;-68
2022/01/24 13:51:54;;;;;;;;;47.25;38.75;;;;;11.66;24.06;100481.38;6186213;28;97782;-69
2022/01/24 13:55:15;;;;;;;;;49.40;40.00;;;;;11.51;24.42;100480.59;6185539;28;97455;-72
2022/01/24 13:58:24;;;;;;;;;54.40;43.40;;;;;11.38;24.89;100472.31;6187820;28;97057;-70
2022/01/24 14:01:28;;;;;;;;;50.00;41.00;;;;;11.12;25.17;100473.66;6185802;28;97729;-71
2022/01/24 14:04:39;;;;;;;;;53.00;41.00;;;;;10.93;25.29;100474.19;6198012;28;98811;-70
2022/01/24 14:07:43;;;;;;;;;52.20;41.00;;;;;10.08;26.27;100480.84;6182212;28;96884;-68
2022/01/24 14:10:49;;;;;;;;;53.00;43.00;;;;;9.67;27.23;100481.13;6185580;28;97064;-70
2022/01/24 14:13:59;;;;;;;;;55.00;44.00;;;;;9.75;27.17;100478.38;6184882;28;97294;-70
2022/01/24 14:17:11;;;;;;;;;52.50;41.50;;;;;9.33;27.04;100391.81;6178978;28;97122;-71
2022/01/24 14:20:18;;;;;;;;;56.40;42.20;;;;;9.75;27.19;100474.84;6186364;28;97693;-69
2022/01/24 14:23:24;;;;;;;;;55.00;43.00;;;;;9.31;28.00;100471.88;6185997;28;97822;-73
2022/01/24 14:26:30;;;;;;;;;52.80;41.00;;;;;9.40;27.68;100463.59;6184011;28;99232;-72
2022/01/24 14:29:38;;;;;;;;;54.50;42.25;;;;;9.31;27.40;100466.50;6184644;28;98205;-70
2022/01/24 14:32:48;;;;;;;;;50.20;39.20;;;;;9.02;27.74;100464.41;6156199;28;99141;-68
2022/01/24 14:35:58;;;;;;;;;53.75;42.00;;;;;8.43;28.65;100466.56;6185226;28;97396;-72
2022/01/24 14:39:06;;;;;;;;;54.40;43.00;;;;;8.28;28.62;100455.63;6178967;28;98368;-68
2022/01/24 14:42:12;;;;;;;;;52.80;41.40;;;;;8.12;29.04;100469.03;6189573;27;98254;-69
2022/01/24 14:45:14;;;;;;;;;58.20;44.00;;;;;7.99;29.42;100470.56;6186711;28;96509;-71
2022/01/24 14:48:18;;;;;;;;;52.60;41.60;;;;;7.82;29.68;100461.63;6184625;28;98407;-71
2022/01/24 14:51:24;;;;;;;;;51.60;41.00;;;;;7.83;29.75;100468.69;6184845;28;100253;-71
2022/01/24 14:54:32;;;;;;;;;57.00;42.00;;;;;7.74;30.23;100458.94;6183763;28;96891;-67
2022/01/24 14:57:36;;;;;;;;;52.50;41.00;;;;;7.64;30.29;100461.78;6184617;28;96846;-71
2022/01/24 15:00:39;;;;;;;;;52.40;41.40;;;;;7.47;30.21;100460.06;6180822;28;97806;-67
2022/01/24 15:03:43;;;;;;;;;51.80;40.80;;;;;7.24;30.84;100441.03;6181401;28;96959;-69
2022/01/24 15:06:46;;;;;;;;;52.00;39.60;;;;;7.17;30.69;100433.81;6182432;28;97560;-71
2022/01/24 15:09:51;;;;;;;;;49.40;38.40;;;;;7.23;30.91;100457.31;6177919;28;97590;-69
2022/01/24 15:13:01;;;;;;;;;51.00;39.00;;;;;7.11;30.89;100464.78;6178563;28;98527;-70
2022/01/24 15:16:16;;;;;;;;;48.60;38.00;;;;;6.98;30.81;100464.41;6183228;28;97524;-69
2022/01/24 15:26:02;;;;;;;;;46.00;38.20;;;;;6.66;31.67;100462.38;6158972;28;97638;-69
2022/01/24 15:29:05;;;;;;;;;47.00;37.00;;;;;6.50;31.66;100465.78;6183804;28;97188;-70
2022/01/24 15:32:09;;;;;;;;;49.80;38.00;;;;;6.38;32.34;100468.88;6182440;28;96880;-69